Time;durP1;ratioP1;P1;durP2;ratioP2;P2;SDS_P1;SDS_P2;PMS_P1;PMS_P2;Temp;Humidity;BMP_temperature;BMP_pressure;BME280_temperature;BME280_humidity;BME280_pressure;Samples;Min_cycle;Max_cycle;Signal;HPM_P1;HPM_P2
2021/10/16 00:01:22;;;;;;;14.45;8.48;;;7.10;79.40;;;;;;4958063;28;20074;-89
2021/10/16 00:03:48;;;;;;;11.13;6.78;;;7.10;79.30;;;;;;4957882;28;20101;-88
2021/10/16 00:06:15;;;;;;;36.42;24.77;;;7.10;79.10;;;;;;4957655;28;20026;-89
2021/10/16 00:08:41;;;;;;;37.42;22.83;;;7.10;79.40;;;;;;4957976;28;20038;-90
2021/10/16 00:11:07;;;;;;;30.05;20.00;;;7.10;79.50;;;;;;4957923;28;20113;-89
2021/10/16 00:13:33;;;;;;;24.73;14.88;;;7.20;79.10;;;;;;4974590;28;20030;-88
2021/10/16 00:15:58;;;;;;;27.50;18.83;;;7.20;78.70;;;;;;4975042;28;20026;-88
2021/10/16 00:18:25;;;;;;;23.23;14.45;;;7.20;79.00;;;;;;4957433;28;20031;-88
2021/10/16 00:20:54;;;;;;;17.15;11.52;;;7.20;79.00;;;;;;4957613;28;20086;-88
2021/10/16 00:23:20;;;;;;;18.50;10.85;;;7.20;78.70;;;;;;4957896;28;20050;-88
2021/10/16 00:25:46;;;;;;;15.32;10.38;;;7.20;78.80;;;;;;4974487;28;20058;-87
2021/10/16 00:28:11;;;;;;;14.82;9.25;;;7.20;79.50;;;;;;4957081;28;20385;-88
2021/10/16 00:30:37;;;;;;;12.57;8.18;;;7.20;79.00;;;;;;4974916;28;20457;-88
2021/10/16 00:33:03;;;;;;;13.18;7.97;;;7.10;78.80;;;;;;4974518;28;20033;-87
2021/10/16 00:35:29;;;;;;;13.05;8.10;;;7.10;79.20;;;;;;4961641;28;20027;-87
2021/10/16 00:37:54;;;;;;;15.23;9.63;;;7.10;79.40;;;;;;4992733;28;20034;-86
2021/10/16 00:40:20;;;;;;;16.42;10.75;;;7.00;80.60;;;;;;4993950;28;20030;-88
2021/10/16 00:42:49;;;;;;;14.57;9.73;;;7.00;81.20;;;;;;4994074;28;20105;-87
2021/10/16 00:45:16;;;;;;;15.52;10.48;;;7.00;80.80;;;;;;4976407;28;20037;-88
2021/10/16 00:47:42;;;;;;;15.90;9.48;;;6.90;81.50;;;;;;4993513;28;20035;-89
2021/10/16 00:50:09;;;;;;;13.60;9.05;;;6.90;81.20;;;;;;4976294;28;20053;-88
2021/10/16 00:52:39;;;;;;;18.58;11.60;;;6.80;80.80;;;;;;4976773;28;20069;-88
2021/10/16 00:55:07;;;;;;;17.00;11.18;;;6.80;82.90;;;;;;4977500;28;20053;-87
2021/10/16 00:57:33;;;;;;;20.52;12.00;;;6.80;82.70;;;;;;4977895;28;20034;-85
2021/10/16 00:59:59;;;;;;;16.25;11.07;;;6.80;83.80;;;;;;4998320;28;20467;-88
2021/10/16 01:02:25;;;;;;;19.40;11.27;;;6.80;83.10;;;;;;4977421;28;20141;-87
2021/10/16 01:04:51;;;;;;;18.30;10.80;;;6.80;83.10;;;;;;5003401;28;20062;-85
2021/10/16 01:07:16;;;;;;;13.75;8.95;;;6.80;82.60;;;;;;4989335;28;20461;-84
2021/10/16 01:09:45;;;;;;;16.67;10.02;;;6.80;82.50;;;;;;5007172;28;20042;-87
2021/10/16 01:12:11;;;;;;;12.63;8.23;;;6.90;82.50;;;;;;4980939;28;20533;-87
2021/10/16 01:14:48;;;;;;;13.68;8.23;;;6.90;81.70;;;;;;4980871;28;20030;-88
2021/10/16 01:17:17;;;;;;;11.63;7.35;;;7.00;81.50;;;;;;4980883;28;20531;-87
2021/10/16 01:19:45;;;;;;;10.70;7.03;;;7.00;80.90;;;;;;4997161;28;20079;-86
2021/10/16 01:22:12;;;;;;;11.40;7.72;;;7.10;81.00;;;;;;4980233;28;20220;-88
2021/10/16 01:24:38;;;;;;;15.90;9.82;;;7.10;81.00;;;;;;4979847;28;20117;-88
2021/10/16 01:27:05;;;;;;;17.77;10.95;;;7.00;82.70;;;;;;4997680;28;20027;-88
2021/10/16 01:29:34;;;;;;;17.55;10.98;;;7.00;83.40;;;;;;4979515;28;20041;-88
2021/10/16 01:32:02;;;;;;;15.68;9.90;;;7.00;83.50;;;;;;4980237;28;20121;-88
2021/10/16 01:34:29;;;;;;;13.43;8.75;;;7.00;83.40;;;;;;4997022;28;20022;-88
2021/10/16 01:36:55;;;;;;;12.70;8.48;;;7.00;82.60;;;;;;4997065;28;20034;-89
2021/10/16 01:39:22;;;;;;;15.55;9.30;;;7.00;82.70;;;;;;4979618;28;20041;-88
2021/10/16 01:41:51;;;;;;;16.77;10.20;;;7.10;83.10;;;;;;4979287;28;20392;-90
2021/10/16 01:44:17;;;;;;;13.50;9.65;;;7.10;83.90;;;;;;4996893;28;20026;-89
2021/10/16 01:46:44;;;;;;;16.10;9.82;;;7.10;83.50;;;;;;4979511;28;20030;-88
2021/10/16 01:49:12;;;;;;;16.27;10.52;;;7.10;83.90;;;;;;4979681;28;20434;-89
2021/10/16 01:51:38;;;;;;;16.13;10.73;;;7.00;84.50;;;;;;4979174;28;20114;-89
2021/10/16 01:54:06;;;;;;;16.52;9.85;;;7.00;84.50;;;;;;4979293;28;20031;-89
2021/10/16 01:56:32;;;;;;;13.48;9.32;;;7.00;83.90;;;;;;4979313;28;20472;-89
2021/10/16 01:59:14;;;;;;;15.30;10.10;;;7.00;83.90;;;;;;4996850;28;20031;-88
2021/10/16 02:01:40;;;;;;;16.67;10.07;;;7.00;84.50;;;;;;4979470;28;20077;-89
2021/10/16 02:04:06;;;;;;;17.38;11.75;;;6.90;84.90;;;;;;4996501;28;20434;-89
2021/10/16 02:06:31;;;;;;;19.42;12.35;;;6.90;86.10;;;;;;4979048;28;20041;-88
2021/10/16 02:09:00;;;;;;;19.25;13.32;;;6.90;86.70;;;;;;4978984;28;20125;-89
2021/10/16 02:11:25;;;;;;;23.30;13.85;;;6.80;87.00;;;;;;4996808;28;20023;-90
2021/10/16 02:13:51;;;;;;;21.58;13.65;;;6.80;87.50;;;;;;4978991;28;20085;-89
2021/10/16 02:16:17;;;;;;;18.10;12.13;;;6.80;87.60;;;;;;4978104;28;20030;-90
2021/10/16 02:18:42;;;;;;;18.65;11.60;;;6.80;87.20;;;;;;4979208;28;20385;-90
2021/10/16 02:21:08;;;;;;;20.20;12.52;;;6.80;86.80;;;;;;4962816;28;20031;-90
2021/10/16 02:23:34;;;;;;;19.15;12.07;;;6.70;87.70;;;;;;4996156;28;20029;-88
2021/10/16 02:25:59;;;;;;;16.92;11.80;;;6.70;87.90;;;;;;4996350;28;20044;-88
2021/10/16 02:28:25;;;;;;;16.02;10.50;;;6.70;87.40;;;;;;4996273;28;20038;-88
2021/10/16 02:30:51;;;;;;;17.42;11.55;;;6.70;87.10;;;;;;4978827;28;20041;-90
2021/10/16 02:33:16;;;;;;;19.77;11.43;;;6.60;87.50;;;;;;4978835;28;20031;-89
2021/10/16 02:35:42;;;;;;;18.95;11.85;;;6.60;87.90;;;;;;4978914;28;20543;-89
2021/10/16 02:38:09;;;;;;;19.55;12.30;;;6.60;89.00;;;;;;4978689;28;20034;-91
2021/10/16 02:40:36;;;;;;;19.45;12.18;;;6.60;89.20;;;;;;4982651;28;20054;-89
2021/10/16 02:43:04;;;;;;;19.95;12.55;;;6.60;89.00;;;;;;4979279;28;20104;-90
2021/10/16 02:45:30;;;;;;;20.33;11.95;;;6.60;89.70;;;;;;4984595;28;20033;-90
2021/10/16 02:47:55;;;;;;;17.88;11.55;;;6.60;89.80;;;;;;5002608;28;20030;-89
2021/10/16 02:50:21;;;;;;;17.67;11.32;;;6.60;89.90;;;;;;5003173;28;20034;-90
2021/10/16 02:52:47;;;;;;;18.02;11.85;;;6.60;89.80;;;;;;5020032;28;20074;-90
2021/10/16 02:55:12;;;;;;;18.42;12.10;;;6.60;90.10;;;;;;5003352;28;20017;-91
2021/10/16 02:57:38;;;;;;;19.27;12.50;;;6.50;90.00;;;;;;5002593;28;20035;-88
2021/10/16 03:00:05;;;;;;;20.55;13.23;;;6.50;90.30;;;;;;5002868;28;20066;-89
2021/10/16 03:02:31;;;;;;;20.80;12.85;;;6.50;90.50;;;;;;5000871;28;20062;-91
2021/10/16 03:04:56;;;;;;;22.27;13.32;;;6.50;90.50;;;;;;4986673;28;20026;-88
2021/10/16 03:07:22;;;;;;;24.38;13.18;;;6.50;90.50;;;;;;5019443;28;20018;-89
2021/10/16 03:09:48;;;;;;;21.52;13.05;;;6.50;90.90;;;;;;4985650;28;20034;-90
2021/10/16 03:12:13;;;;;;;20.48;12.80;;;6.50;90.60;;;;;;4978645;28;20401;-90
2021/10/16 03:14:39;;;;;;;23.50;13.85;;;6.50;90.40;;;;;;4995904;28;20027;-89
2021/10/16 03:17:05;;;;;;;20.25;13.30;;;6.50;90.60;;;;;;4995629;28;20423;-90
2021/10/16 03:19:31;;;;;;;19.50;12.65;;;6.40;90.20;;;;;;4977400;28;20093;-89
2021/10/16 03:21:56;;;;;;;22.02;13.50;;;6.40;90.10;;;;;;4977273;28;20121;-88
2021/10/16 03:24:23;;;;;;;25.95;15.68;;;6.40;90.30;;;;;;4995027;28;20034;-87
2021/10/16 03:26:49;;;;;;;22.55;14.15;;;6.40;90.40;;;;;;4995190;28;20027;-88
2021/10/16 03:29:15;;;;;;;23.25;14.95;;;6.40;90.00;;;;;;4994990;28;20041;-88
2021/10/16 03:31:41;;;;;;;24.60;15.20;;;6.40;90.50;;;;;;4977599;28;20496;-87
2021/10/16 03:34:07;;;;;;;27.58;15.38;;;6.40;90.10;;;;;;4995051;28;20058;-89
2021/10/16 03:36:33;;;;;;;25.55;16.38;;;6.40;90.40;;;;;;4977067;28;20081;-89
2021/10/16 03:38:59;;;;;;;25.85;15.98;;;6.40;90.90;;;;;;4976947;28;20036;-88
2021/10/16 03:41:24;;;;;;;24.38;15.15;;;6.40;90.80;;;;;;4994556;28;20101;-86
2021/10/16 03:43:50;;;;;;;25.17;16.90;;;6.40;90.80;;;;;;4977000;28;20026;-89
2021/10/16 03:46:16;;;;;;;26.02;15.75;;;6.40;91.00;;;;;;4976872;28;20026;-88
2021/10/16 03:48:42;;;;;;;27.27;17.33;;;6.30;91.00;;;;;;4961213;28;20038;-87
2021/10/16 03:51:09;;;;;;;35.72;19.77;;;6.30;91.20;;;;;;4977108;28;20096;-88
2021/10/16 03:53:35;;;;;;;36.13;22.95;;;6.40;91.90;;;;;;4977104;28;20034;-88
2021/10/16 03:56:02;;;;;;;38.17;22.92;;;6.40;92.30;;;;;;4977659;28;20077;-88
2021/10/16 03:58:28;;;;;;;38.40;24.17;;;6.40;92.40;;;;;;4976735;28;20468;-88
2021/10/16 04:00:59;;;;;;;37.20;24.08;;;6.50;92.50;;;;;;4976817;28;20061;-89
2021/10/16 04:03:25;;;;;;;37.90;23.15;;;6.50;92.20;;;;;;4994970;28;20054;-89
2021/10/16 04:05:51;;;;;;;39.55;23.52;;;6.50;91.90;;;;;;4977437;28;20061;-90
2021/10/16 04:08:18;;;;;;;37.15;22.90;;;6.60;92.00;;;;;;4977582;28;20033;-90
2021/10/16 04:10:45;;;;;;;34.85;21.58;;;6.70;91.90;;;;;;4977204;28;20121;-88
2021/10/16 04:13:11;;;;;;;33.47;19.90;;;6.70;91.50;;;;;;4994746;28;20062;-88
2021/10/16 04:15:37;;;;;;;36.38;21.98;;;6.70;91.50;;;;;;4994627;28;20072;-89
2021/10/16 04:18:03;;;;;;;35.88;23.10;;;6.80;91.60;;;;;;4977220;28;20026;-89
2021/10/16 04:20:29;;;;;;;37.78;23.83;;;6.80;91.60;;;;;;4977190;28;20042;-89
2021/10/16 04:22:55;;;;;;;36.80;22.50;;;6.80;91.90;;;;;;4976685;28;20023;-88
2021/10/16 04:25:21;;;;;;;38.00;23.00;;;6.90;91.80;;;;;;4993937;28;20039;-89
2021/10/16 04:27:48;;;;;;;35.72;21.42;;;6.90;91.60;;;;;;4979018;28;20116;-89
2021/10/16 04:30:14;;;;;;;31.98;20.38;;;7.00;91.30;;;;;;4993830;28;20484;-89
2021/10/16 04:32:39;;;;;;;32.95;19.80;;;7.00;91.10;;;;;;4993957;28;20022;-88
2021/10/16 04:35:06;;;;;;;33.13;20.30;;;7.00;91.20;;;;;;4994157;28;20527;-88
2021/10/16 04:37:34;;;;;;;36.38;22.05;;;7.00;91.60;;;;;;4977073;28;20033;-88
2021/10/16 04:40:00;;;;;;;33.33;20.30;;;7.00;91.60;;;;;;4965120;28;20035;-88
2021/10/16 04:42:26;;;;;;;35.10;21.15;;;7.10;91.40;;;;;;4966763;28;20201;-88
2021/10/16 04:44:52;;;;;;;38.88;21.13;;;7.10;91.50;;;;;;5000383;28;20445;-87
2021/10/16 04:47:17;;;;;;;38.10;22.00;;;7.10;91.20;;;;;;4967951;28;20121;-88
2021/10/16 04:49:43;;;;;;;40.53;22.90;;;7.20;91.50;;;;;;4985717;28;20066;-87
2021/10/16 04:52:09;;;;;;;33.60;20.70;;;7.20;91.30;;;;;;4982105;28;20436;-86
2021/10/16 04:54:34;;;;;;;33.58;20.92;;;7.20;91.10;;;;;;4982105;28;20026;-88
2021/10/16 04:57:00;;;;;;;35.97;20.92;;;7.20;91.10;;;;;;4999409;28;20026;-87
2021/10/16 04:59:26;;;;;;;32.80;20.38;;;7.20;91.10;;;;;;4980730;28;20165;-87
2021/10/16 05:01:54;;;;;;;35.35;22.13;;;7.30;90.90;;;;;;4976840;28;20051;-89
2021/10/16 05:04:20;;;;;;;37.92;23.52;;;7.30;90.90;;;;;;4977070;28;20034;-90
2021/10/16 05:06:47;;;;;;;36.88;21.92;;;7.30;90.90;;;;;;4978820;28;20026;-89
2021/10/16 05:09:13;;;;;;;40.80;23.13;;;7.30;90.70;;;;;;4960458;28;20050;-88
2021/10/16 05:11:39;;;;;;;35.85;22.35;;;7.40;90.60;;;;;;4977794;28;20397;-90
2021/10/16 05:14:05;;;;;;;35.53;21.88;;;7.50;90.50;;;;;;4960759;28;20101;-89
2021/10/16 05:16:31;;;;;;;35.00;21.70;;;7.50;90.20;;;;;;4978051;28;20023;-87
2021/10/16 05:18:57;;;;;;;35.50;21.95;;;7.50;90.10;;;;;;4976828;28;20026;-90
2021/10/16 05:21:22;;;;;;;35.83;23.02;;;7.50;90.30;;;;;;4977767;28;20066;-89
2021/10/16 05:23:48;;;;;;;39.53;23.58;;;7.50;90.30;;;;;;4982211;28;20023;-93
2021/10/16 05:26:16;;;;;;;36.33;22.38;;;7.60;90.30;;;;;;4965767;28;20454;-92
2021/10/16 05:28:41;;;;;;;39.13;23.30;;;7.70;90.00;;;;;;4980234;28;20045;-89
2021/10/16 05:31:07;;;;;;;37.00;21.13;;;7.70;89.80;;;;;;4977497;28;20027;-91
2021/10/16 05:33:33;;;;;;;35.88;21.75;;;7.80;90.10;;;;;;4976732;28;20544;-89
2021/10/16 05:35:59;;;;;;;33.97;19.20;;;7.90;89.00;;;;;;4961137;28;20064;-90
2021/10/16 05:38:26;;;;;;;30.90;19.50;;;7.90;88.30;;;;;;4976920;28;20053;-88
2021/10/16 05:40:52;;;;;;;37.22;22.85;;;8.00;87.80;;;;;;4977594;28;20061;-89
2021/10/16 05:43:29;;;;;;;36.80;22.95;;;8.00;87.90;;;;;;4978906;28;20373;-93
2021/10/16 05:45:56;;;;;;;39.53;25.13;;;8.00;88.10;;;;;;4978544;28;20038;-90
2021/10/16 05:48:22;;;;;;;41.92;26.05;;;8.00;87.30;;;;;;4979428;28;20027;-92
2021/10/16 05:50:49;;;;;;;42.05;26.13;;;8.20;87.10;;;;;;4976175;28;20038;-91
2021/10/16 05:53:14;;;;;;;42.78;25.05;;;8.20;86.80;;;;;;4976615;28;20022;-90
2021/10/16 05:55:40;;;;;;;39.00;23.90;;;8.20;86.40;;;;;;4976829;28;20370;-92
2021/10/16 05:58:06;;;;;;;41.53;25.17;;;8.30;86.20;;;;;;4977798;28;20023;-89
2021/10/16 06:00:31;;;;;;;42.60;26.05;;;8.40;86.30;;;;;;4978681;28;20126;-90
2021/10/16 06:02:59;;;;;;;40.90;23.75;;;8.40;86.00;;;;;;4998274;28;20469;-90
2021/10/16 06:05:25;;;;;;;46.25;24.98;;;8.50;85.40;;;;;;4982714;28;20031;-91
2021/10/16 06:07:51;;;;;;;46.20;24.83;;;8.50;85.00;;;;;;5002579;28;20465;-88
2021/10/16 06:10:16;;;;;;;32.00;18.17;;;8.60;84.40;;;;;;5005970;28;20041;-86
2021/10/16 06:12:42;;;;;;;27.33;16.42;;;8.60;84.10;;;;;;4987260;28;20030;-88
2021/10/16 06:15:11;;;;;;;23.33;15.10;;;8.50;83.40;;;;;;4985558;28;20054;-86
2021/10/16 06:17:37;;;;;;;23.70;13.90;;;8.60;83.10;;;;;;4985107;28;20432;-86
2021/10/16 06:20:04;;;;;;;20.02;12.25;;;8.60;83.00;;;;;;4980725;28;20038;-89
2021/10/16 06:22:30;;;;;;;19.95;11.82;;;8.60;82.90;;;;;;4980128;28;20503;-89
2021/10/16 06:24:55;;;;;;;18.10;12.02;;;8.60;82.90;;;;;;4979228;28;20034;-89
2021/10/16 06:27:23;;;;;;;15.77;10.70;;;8.60;83.00;;;;;;4979809;28;20469;-85
2021/10/16 06:29:49;;;;;;;17.73;11.07;;;8.60;82.90;;;;;;4996704;28;20026;-88
2021/10/16 06:32:16;;;;;;;15.23;9.60;;;8.70;83.00;;;;;;4996973;28;20022;-92
2021/10/16 06:34:41;;;;;;;13.65;9.32;;;8.80;82.60;;;;;;4999070;28;20030;-89
2021/10/16 06:37:07;;;;;;;14.95;9.73;;;8.90;82.60;;;;;;4998783;28;20034;-92
2021/10/16 06:39:33;;;;;;;16.83;11.00;;;9.00;82.70;;;;;;4979791;28;20030;-90
2021/10/16 06:41:58;;;;;;;17.90;11.43;;;9.10;82.70;;;;;;4979797;28;20085;-90
2021/10/16 06:44:27;;;;;;;18.75;11.13;;;9.20;82.50;;;;;;4979272;28;20060;-90
2021/10/16 06:46:54;;;;;;;17.30;11.43;;;9.20;82.10;;;;;;4979512;28;20030;-89
2021/10/16 06:49:19;;;;;;;18.77;11.88;;;9.30;82.10;;;;;;4997239;28;20095;-92
2021/10/16 06:51:45;;;;;;;19.80;11.55;;;9.40;82.00;;;;;;4983470;28;20054;-90
2021/10/16 06:54:12;;;;;;;19.60;12.50;;;9.40;81.70;;;;;;4981888;28;20030;-91
2021/10/16 06:56:39;;;;;;;16.67;11.75;;;9.40;81.50;;;;;;4982947;28;20030;-93
2021/10/16 06:59:05;;;;;;;18.10;11.73;;;9.50;81.50;;;;;;4987074;28;20038;-91
2021/10/16 07:01:31;;;;;;;16.70;11.07;;;9.50;81.50;;;;;;4983584;28;20050;-90
2021/10/16 07:03:57;;;;;;;16.13;10.15;;;9.50;81.60;;;;;;4989250;28;20114;-89
2021/10/16 07:06:22;;;;;;;19.30;11.93;;;9.50;81.40;;;;;;4989341;28;20026;-92
2021/10/16 07:08:50;;;;;;;19.35;12.50;;;9.50;81.40;;;;;;4990079;28;20054;-90
2021/10/16 07:11:16;;;;;;;19.83;12.77;;;9.50;81.40;;;;;;4992827;28;20070;-90
2021/10/16 07:13:42;;;;;;;22.10;14.05;;;9.60;81.50;;;;;;4988070;28;20027;-91
2021/10/16 07:16:08;;;;;;;20.83;13.15;;;9.60;81.70;;;;;;4977422;28;20031;-91
2021/10/16 07:18:35;;;;;;;16.92;11.65;;;9.60;81.30;;;;;;4976206;28;20031;-90
2021/10/16 07:21:01;;;;;;;16.98;11.02;;;9.70;81.20;;;;;;4975493;28;20075;-90
2021/10/16 07:23:26;;;;;;;18.63;11.93;;;9.70;81.00;;;;;;4976588;28;20043;-90
2021/10/16 07:25:55;;;;;;;18.67;12.10;;;9.70;81.10;;;;;;4979937;28;20385;-90
2021/10/16 07:28:21;;;;;;;23.00;14.32;;;9.70;80.90;;;;;;4976617;28;20065;-89
2021/10/16 07:30:47;;;;;;;23.60;13.38;;;9.70;81.20;;;;;;4976729;28;20054;-89
2021/10/16 07:33:13;;;;;;;22.70;13.05;;;9.80;81.00;;;;;;4980176;28;20078;-90
2021/10/16 07:35:41;;;;;;;22.00;14.25;;;9.80;81.00;;;;;;4996979;28;20011;-90
2021/10/16 07:38:06;;;;;;;20.73;13.75;;;9.80;81.30;;;;;;4998459;28;20022;-90
2021/10/16 07:40:32;;;;;;;20.08;12.75;;;9.90;81.20;;;;;;5012826;23;20039;-86
2021/10/16 07:42:58;;;;;;;24.27;14.25;;;9.90;80.90;;;;;;4980120;28;20042;-90
2021/10/16 07:45:24;;;;;;;21.75;12.98;;;9.90;80.80;;;;;;4979354;28;20047;-91
2021/10/16 07:47:50;;;;;;;20.60;12.73;;;9.90;80.70;;;;;;4979118;28;20015;-91
2021/10/16 07:50:16;;;;;;;19.65;12.88;;;9.90;80.50;;;;;;4978430;28;20050;-92
2021/10/16 07:52:42;;;;;;;19.48;12.63;;;9.90;80.30;;;;;;4974635;29;20027;-92
2021/10/16 07:55:08;;;;;;;22.73;14.27;;;10.00;80.20;;;;;;4975105;29;20051;-90
2021/10/16 07:57:34;;;;;;;22.55;13.88;;;10.00;79.90;;;;;;4967127;28;20098;-90
2021/10/16 08:00:00;;;;;;;32.53;15.93;;;10.00;79.50;;;;;;4961025;28;20110;-94
2021/10/16 08:02:25;;;;;;;33.10;17.38;;;10.00;79.40;;;;;;4967724;29;20028;-95
2021/10/16 08:04:56;;;;;;;28.30;15.32;;;10.10;79.30;;;;;;4958814;29;20374;-92
2021/10/16 08:07:22;;;;;;;23.27;14.13;;;10.10;79.10;;;;;;4957117;29;20024;-90
2021/10/16 08:09:48;;;;;;;24.48;14.55;;;10.10;79.00;;;;;;4954014;29;20544;-88
2021/10/16 08:12:13;;;;;;;24.80;14.45;;;10.30;78.90;;;;;;4956678;28;20027;-90
2021/10/16 08:14:40;;;;;;;24.52;14.48;;;10.30;78.90;;;;;;4955538;28;20033;-90
2021/10/16 08:17:06;;;;;;;24.80;13.55;;;10.30;78.70;;;;;;4955304;29;20031;-88
2021/10/16 08:19:32;;;;;;;24.83;12.88;;;10.40;78.50;;;;;;4957256;29;20552;-95
2021/10/16 08:21:58;;;;;;;22.25;12.80;;;10.50;78.30;;;;;;4955657;28;20027;-87
2021/10/16 08:24:23;;;;;;;28.35;17.83;;;10.50;78.00;;;;;;4967136;28;20019;-95
2021/10/16 08:26:49;;;;;;;24.33;14.65;;;10.60;77.90;;;;;;4958215;29;20031;-88
2021/10/16 08:29:15;;;;;;;20.77;13.43;;;10.70;77.70;;;;;;4956208;28;20027;-93
2021/10/16 08:31:42;;;;;;;20.80;13.20;;;10.70;77.50;;;;;;4955187;29;20066;-94
2021/10/16 08:34:07;;;;;;;19.15;12.10;;;10.80;77.40;;;;;;4957725;28;20038;-92
2021/10/16 08:36:35;;;;;;;19.58;12.43;;;10.80;77.30;;;;;;4953058;29;20035;-92
2021/10/16 08:39:01;;;;;;;19.10;11.65;;;10.80;77.20;;;;;;4956234;28;20046;-93
2021/10/16 08:41:27;;;;;;;18.48;11.40;;;10.90;77.20;;;;;;4954626;28;20055;-93
2021/10/16 08:43:54;;;;;;;16.83;11.13;;;10.90;77.20;;;;;;4954700;28;20126;-93
2021/10/16 08:46:23;;;;;;;17.58;10.77;;;10.90;77.20;;;;;;4955624;28;20023;-94
2021/10/16 08:48:49;;;;;;;16.77;10.70;;;11.00;77.30;;;;;;4956377;29;20053;-95
2021/10/16 08:51:14;;;;;;;17.80;10.70;;;11.10;77.20;;;;;;4955762;29;20537;-95
2021/10/16 08:53:40;;;;;;;15.18;10.45;;;11.10;77.10;;;;;;4956907;29;20038;-93
2021/10/16 08:56:06;;;;;;;17.95;11.32;;;11.20;77.80;;;;;;4956543;28;20027;-93
2021/10/16 08:58:34;;;;;;;16.75;10.82;;;11.20;77.30;;;;;;4955737;29;20028;-94
2021/10/16 09:01:04;;;;;;;17.30;10.75;;;11.30;77.30;;;;;;4955480;29;20035;-93
2021/10/16 09:03:31;;;;;;;17.08;11.30;;;11.30;77.30;;;;;;4955885;29;20032;-92
2021/10/16 09:06:16;;;;;;;18.25;12.35;;;11.30;77.10;;;;;;4956655;29;20063;-92
2021/10/16 09:08:56;;;;;;;15.13;10.73;;;11.40;77.00;;;;;;4954831;29;20040;-92
2021/10/16 09:11:49;;;;;;;15.40;9.87;;;11.40;77.00;;;;;;4956107;29;20034;-93
2021/10/16 09:14:23;;;;;;;18.58;11.57;;;11.40;76.90;;;;;;4956196;28;20110;-93
2021/10/16 09:16:57;;;;;;;14.32;9.95;;;11.40;76.70;;;;;;4956254;29;20050;-92
2021/10/16 09:19:27;;;;;;;13.80;9.15;;;11.40;76.70;;;;;;4956242;28;20027;-92
2021/10/16 09:22:06;;;;;;;17.30;11.13;;;11.40;76.80;;;;;;4956291;28;20102;-93
2021/10/16 09:24:38;;;;;;;15.43;9.18;;;11.40;76.90;;;;;;4955977;28;20027;-92
2021/10/16 09:27:11;;;;;;;16.30;10.27;;;11.40;76.90;;;;;;4958812;29;20422;-92
2021/10/16 09:29:39;;;;;;;15.88;9.07;;;11.40;77.00;;;;;;4959654;29;20027;-95
2021/10/16 09:32:11;;;;;;;18.42;10.77;;;11.50;77.00;;;;;;4959733;29;20034;-91
2021/10/16 09:34:43;;;;;;;19.40;11.63;;;11.50;77.10;;;;;;4959092;28;20034;-91
2021/10/16 09:37:14;;;;;;;14.98;10.30;;;11.60;77.40;;;;;;4958639;29;20082;-92
2021/10/16 09:39:47;;;;;;;15.88;10.50;;;11.70;77.70;;;;;;4961704;28;20035;-94
2021/10/16 09:42:14;;;;;;;16.40;10.73;;;11.70;77.60;;;;;;4980042;28;20066;-94
2021/10/16 09:44:42;;;;;;;15.35;10.13;;;11.80;77.70;;;;;;4965257;28;20086;-94
2021/10/16 09:47:17;;;;;;;14.27;9.32;;;11.90;77.20;;;;;;4966156;28;20030;-95
2021/10/16 09:49:48;;;;;;;15.63;9.75;;;12.10;77.20;;;;;;4964031;28;20035;-93
2021/10/16 09:52:16;;;;;;;16.35;10.63;;;12.10;77.10;;;;;;4961611;28;20110;-95
2021/10/16 09:54:44;;;;;;;17.13;10.65;;;12.20;77.00;;;;;;4981689;28;20083;-95
2021/10/16 09:57:12;;;;;;;15.80;10.20;;;12.30;76.80;;;;;;4961934;28;20074;-92
2021/10/16 09:59:39;;;;;;;18.80;12.15;;;12.50;76.70;;;;;;4964874;28;20034;-90
2021/10/16 10:02:06;;;;;;;18.77;12.52;;;12.60;76.60;;;;;;4960751;28;20037;-92
2021/10/16 10:04:36;;;;;;;15.70;10.38;;;12.70;76.40;;;;;;4961528;28;20033;-93
2021/10/16 10:07:02;;;;;;;16.40;11.30;;;12.90;76.30;;;;;;4980430;28;20022;-90
2021/10/16 10:09:32;;;;;;;19.70;13.48;;;13.10;76.30;;;;;;4959763;28;20034;-91
2021/10/16 10:11:59;;;;;;;17.85;12.10;;;13.20;76.20;;;;;;4959803;28;20114;-91
2021/10/16 10:14:26;;;;;;;19.05;12.82;;;13.50;76.10;;;;;;4959934;28;20033;-92
2021/10/16 10:16:54;;;;;;;18.10;12.05;;;13.80;76.00;;;;;;4960195;28;20118;-91
2021/10/16 10:19:21;;;;;;;17.73;12.27;;;14.10;74.80;;;;;;4960328;28;20038;-92
2021/10/16 10:21:48;;;;;;;17.88;12.38;;;14.40;73.90;;;;;;4960472;28;20069;-91
2021/10/16 10:24:14;;;;;;;17.75;11.88;;;14.60;72.70;;;;;;4977540;28;20134;-94
2021/10/16 10:26:42;;;;;;;18.65;12.48;;;14.70;72.00;;;;;;4980860;28;20501;-95
2021/10/16 10:29:10;;;;;;;17.60;11.13;;;14.70;71.50;;;;;;4978910;28;20042;-95
2021/10/16 10:31:45;;;;;;;14.43;9.82;;;14.70;71.40;;;;;;4981768;28;20435;-94
2021/10/16 10:34:20;;;;;;;16.48;10.82;;;14.60;71.00;;;;;;4962068;28;20081;-95
2021/10/16 10:36:50;;;;;;;19.10;11.57;;;14.50;70.90;;;;;;4961393;28;20038;-96
2021/10/16 10:39:35;;;;;;;18.30;11.88;;;14.40;71.10;;;;;;4962961;28;20085;-95
2021/10/16 10:42:13;;;;;;;17.17;11.73;;;14.40;69.90;;;;;;4986590;28;20045;-96
2021/10/16 10:44:49;;;;;;;16.08;11.43;;;14.40;70.10;;;;;;4967263;28;20022;-94
2021/10/16 10:47:32;;;;;;;16.67;10.90;;;14.40;70.40;;;;;;4964155;28;20023;-94
2021/10/16 10:50:08;;;;;;;13.52;10.00;;;14.30;70.20;;;;;;4960664;28;20039;-94
2021/10/16 10:53:07;;;;;;;13.75;10.20;;;14.30;70.30;;;;;;4962733;28;20062;-95
2021/10/16 10:55:57;;;;;;;16.45;11.85;;;14.30;68.70;;;;;;4966348;28;20122;-95
2021/10/16 10:58:23;;;;;;;17.27;11.50;;;14.10;69.30;;;;;;4978177;28;20037;-93
2021/10/16 11:00:52;;;;;;;15.68;10.57;;;14.10;70.10;;;;;;4977417;28;20031;-93
2021/10/16 11:03:30;;;;;;;15.75;11.35;;;14.10;70.20;;;;;;4963403;28;20074;-95
2021/10/16 11:06:11;;;;;;;17.67;11.27;;;14.00;70.00;;;;;;4961094;28;20029;-93
2021/10/16 11:08:37;;;;;;;17.25;11.23;;;14.00;70.20;;;;;;4978645;28;20034;-95
2021/10/16 11:11:07;;;;;;;15.90;11.73;;;14.00;70.30;;;;;;4968453;28;20030;-95
2021/10/16 11:13:35;;;;;;;14.50;10.27;;;14.00;70.30;;;;;;4989502;28;20030;-94
2021/10/16 11:16:04;;;;;;;15.27;11.18;;;14.10;70.20;;;;;;4976671;28;20449;-93
2021/10/16 11:18:31;;;;;;;17.20;11.10;;;14.10;70.40;;;;;;4976274;28;20034;-94
2021/10/16 11:21:08;;;;;;;17.15;11.30;;;14.20;70.40;;;;;;4965888;28;20034;-93
2021/10/16 11:23:38;;;;;;;18.40;11.75;;;14.30;70.20;;;;;;4966624;28;20058;-94
2021/10/16 11:26:10;;;;;;;17.03;10.93;;;14.30;70.20;;;;;;4988292;28;20039;-95
2021/10/16 11:28:38;;;;;;;17.58;12.10;;;14.40;70.20;;;;;;4999638;28;20054;-95
2021/10/16 11:31:06;;;;;;;19.05;12.02;;;14.40;70.20;;;;;;4982846;28;20019;-95
2021/10/16 11:33:40;;;;;;;17.38;12.02;;;14.40;70.00;;;;;;4999060;28;20027;-94
2021/10/16 11:36:08;;;;;;;19.17;12.25;;;14.50;70.00;;;;;;4982006;28;20027;-94
2021/10/16 11:38:39;;;;;;;17.23;11.25;;;14.50;69.80;;;;;;4982453;28;20086;-95
2021/10/16 11:41:05;;;;;;;;;;;14.50;69.70;;;;;;4982940;28;20066;-93
2021/10/16 11:43:31;;;;;;;17.33;11.95;;;14.40;69.10;;;;;;4980095;28;19894;-94
2021/10/16 11:45:57;;;;;;;21.13;13.50;;;14.30;69.70;;;;;;4999464;28;20017;-93
2021/10/16 11:48:25;;;;;;;26.15;15.68;;;14.30;69.90;;;;;;4976770;28;20031;-93
2021/10/16 11:51:00;;;;;;;24.48;15.85;;;14.30;70.00;;;;;;4986201;28;20050;-93
2021/10/16 11:53:31;;;;;;;25.60;16.73;;;14.20;70.00;;;;;;4963522;28;20114;-94
2021/10/16 11:56:12;;;;;;;24.70;16.23;;;14.10;70.00;;;;;;4963866;28;20030;-91
2021/10/16 11:58:38;;;;;;;22.80;15.38;;;13.90;70.00;;;;;;4964971;28;20058;-93
2021/10/16 12:01:06;;;;;;;25.05;15.45;;;13.80;70.20;;;;;;4981979;28;20023;-92
2021/10/16 12:03:40;;;;;;;24.10;16.02;;;13.70;70.50;;;;;;4979271;28;20106;-93
2021/10/16 12:06:07;;;;;;;22.08;15.05;;;13.60;70.60;;;;;;4977827;28;20110;-94
2021/10/16 12:08:44;;;;;;;23.75;15.20;;;13.50;70.70;;;;;;4959573;28;20109;-93
2021/10/16 12:11:16;;;;;;;23.73;15.20;;;13.50;71.00;;;;;;4959750;28;20027;-94
2021/10/16 12:13:43;;;;;;;22.45;14.20;;;13.40;71.10;;;;;;4977893;28;20058;-96
2021/10/16 12:16:18;;;;;;;22.05;14.43;;;13.40;71.10;;;;;;4959754;28;20034;-92
2021/10/16 12:18:54;;;;;;;22.27;14.70;;;13.40;71.10;;;;;;4960113;28;20023;-93
2021/10/16 12:21:24;;;;;;;22.50;15.13;;;13.30;71.30;;;;;;4990108;28;20035;-93
2021/10/16 12:23:50;;;;;;;23.85;15.38;;;13.20;71.40;;;;;;4998704;28;20015;-93
2021/10/16 12:26:32;;;;;;;22.40;15.07;;;13.20;71.70;;;;;;4998654;28;20584;-94
2021/10/16 12:29:03;;;;;;;21.10;14.80;;;13.10;71.90;;;;;;4998963;28;20046;-91
2021/10/16 12:31:30;;;;;;;22.55;14.45;;;13.00;71.90;;;;;;4981798;28;20018;-94
2021/10/16 12:34:07;;;;;;;22.48;14.85;;;13.00;72.00;;;;;;4981996;28;20011;-94
2021/10/16 12:36:37;;;;;;;23.80;14.65;;;12.90;72.40;;;;;;4994924;28;20030;-93
2021/10/16 12:39:07;;;;;;;22.92;15.98;;;12.80;72.40;;;;;;4990078;28;20089;-94